Terminal Aerodrome Forecast
Issued by NWS

Home | Current Version | Previous Version | Text Only | Print | Product List | Glossary On
Versions: 1 2 3 4 5 6 7 8 9 10 11 12 13 14 15 16 17 18 19 20 21 22 23 24 25 26 27 28 29 30 31 32
000
FTUS43 KGRB 142324
TAFRHI
TAF
KRHI 142324Z 1500/1524 16009KT P6SM SCT020 OVC070
      TEMPO 1501/1502 3SM -SN BKN020
     FM150200 17008KT 3SM -SN SCT009 OVC020
      TEMPO 1502/1506 1SM -SN BKN009
     FM150600 18006KT 4SM -SN BR BKN007 OVC015
     FM151000 20005KT 6SM -SN BR OVC007
     FM151500 23005KT P6SM SCT007 OVC015
     FM151800 23006KT P6SM SCT012 BKN020=

USA.gov is the U.S. government's official web portal to all federal, state and local government web resources and services.